Time;durP1;ratioP1;P1;durP2;ratioP2;P2;SDS_P1;SDS_P2;PMS_P1;PMS_P2;Temp;Humidity;BMP_temperature;BMP_pressure;BME280_temperature;BME280_humidity;BME280_pressure;Samples;Min_cycle;Max_cycle;Signal;HPM_P1;HPM_P2
2024/01/03 00:01:35;;;;;;;1.50;1.40;;;;;;;16.79;56.13;98617.88;5051690;28;20107;-74
2024/01/03 00:04:01;;;;;;;0.00;0.00;;;;;;;16.41;55.61;98611.69;5062441;28;20037;-73
2024/01/03 00:06:33;;;;;;;7.63;0.57;;;;;;;16.72;54.95;98622.75;5071525;28;20491;-73
2024/01/03 00:08:58;;;;;;;0.00;0.00;;;;;;;16.44;54.86;98640.50;5063290;28;20025;-73
2024/01/03 00:11:28;;;;;;;0.00;0.00;;;;;;;16.40;55.46;98624.97;5068110;28;20020;-73
2024/01/03 00:14:06;;;;;;;0.00;0.00;;;;;;;16.50;54.59;98641.00;5051780;28;20029;-73
2024/01/03 00:16:35;;;;;;;0.10;0.10;;;;;;;16.37;55.19;98626.03;5050102;28;20071;-73
2024/01/03 00:19:02;;;;;;;0.00;0.00;;;;;;;16.03;56.13;98662.59;5060094;28;20043;-73
2024/01/03 00:21:33;;;;;;;0.00;0.00;;;;;;;16.33;54.42;98666.72;5070880;28;20028;-72
2024/01/03 00:24:02;;;;;;;0.00;0.00;;;;;;;16.44;54.44;98660.72;5062379;28;20025;-73
2024/01/03 00:26:30;;;;;;;0.17;0.17;;;;;;;15.86;55.32;98665.50;5052576;28;20021;-73
2024/01/03 00:28:59;;;;;;;0.00;0.00;;;;;;;16.15;55.51;98686.44;5053030;28;20025;-73
2024/01/03 00:31:53;;;;;;;0.73;0.73;;;;;;;16.32;54.62;98670.34;5052036;28;20028;-73
2024/01/03 00:34:21;;;;;;;3.60;0.20;;;;;;;16.24;53.87;98685.84;5063943;28;20021;-72
2024/01/03 00:36:47;;;;;;;10.93;1.90;;;;;;;16.27;53.94;98691.72;5071139;28;20017;-72
2024/01/03 00:39:13;;;;;;;6.03;1.03;;;;;;;17.25;52.69;98672.66;5061111;28;20029;-73
2024/01/03 00:41:39;;;;;;;16.13;1.73;;;;;;;16.30;54.34;98685.41;5066611;28;20512;-72
2024/01/03 00:44:04;;;;;;;12.87;1.50;;;;;;;16.81;53.73;98694.28;5050332;28;20026;-72
2024/01/03 00:46:30;;;;;;;17.73;1.67;;;;;;;16.50;54.83;98720.09;5048845;28;20533;-73
2024/01/03 00:48:55;;;;;;;13.33;2.00;;;;;;;16.86;53.63;98708.00;5056995;28;20048;-72
2024/01/03 00:51:21;;;;;;;9.20;1.80;;;;;;;17.13;53.01;98695.50;5072316;28;20028;-72
2024/01/03 00:53:46;;;;;;;11.87;1.63;;;;;;;16.43;55.49;98702.06;5057366;28;20029;-72
2024/01/03 00:56:12;;;;;;;14.10;1.73;;;;;;;16.88;54.03;98700.78;5070181;28;20027;-72
2024/01/03 00:58:38;;;;;;;24.83;2.17;;;;;;;16.76;54.44;98716.53;5058289;28;20024;-72
2024/01/03 01:01:03;;;;;;;19.90;2.83;;;;;;;17.33;53.04;98702.97;5070770;28;20506;-72
2024/01/03 01:03:32;;;;;;;15.43;3.10;;;;;;;16.67;54.10;98724.25;5059019;28;20512;-72
2024/01/03 01:05:57;;;;;;;10.67;1.97;;;;;;;16.24;55.45;98723.56;5070565;28;20047;-71
2024/01/03 01:08:23;;;;;;;8.20;1.50;;;;;;;17.12;53.41;98741.31;5052171;28;20500;-72
2024/01/03 01:10:48;;;;;;;27.00;2.20;;;;;;;17.16;52.96;98728.78;5069555;28;20450;-72
2024/01/03 01:13:14;;;;;;;19.10;2.40;;;;;;;16.38;53.71;98745.53;5060736;28;20017;-72
2024/01/03 01:15:39;;;;;;;8.13;1.87;;;;;;;16.79;53.18;98733.94;5057680;28;20476;-72
2024/01/03 01:18:04;;;;;;;18.60;2.17;;;;;;;16.57;53.61;98755.69;5051034;28;20036;-72
2024/01/03 01:20:30;;;;;;;17.13;1.93;;;;;;;16.62;53.37;98756.19;5067927;28;20720;-72
2024/01/03 01:22:55;;;;;;;14.80;3.00;;;;;;;16.73;53.30;98761.59;5070304;28;20048;-72
2024/01/03 01:25:21;;;;;;;9.77;1.73;;;;;;;15.98;53.95;98762.19;5053269;28;20126;-72
2024/01/03 01:27:46;;;;;;;18.70;2.47;;;;;;;17.07;52.85;98759.28;5049681;28;20393;-72
2024/01/03 01:30:11;;;;;;;13.13;1.83;;;;;;;17.18;51.77;98765.63;5049794;28;20378;-72
2024/01/03 01:32:37;;;;;;;15.23;1.90;;;;;;;15.93;53.71;98773.00;5028815;28;20112;-71
2024/01/03 01:35:02;;;;;;;13.17;1.47;;;;;;;16.54;53.11;98787.50;5062443;28;20021;-72
2024/01/03 01:37:28;;;;;;;12.20;1.80;;;;;;;16.14;53.56;98774.34;5054900;28;20048;-72
2024/01/03 01:39:53;;;;;;;17.07;2.37;;;;;;;16.65;52.13;98785.00;5050318;28;20028;-71
2024/01/03 01:42:19;;;;;;;8.70;1.63;;;;;;;16.35;52.61;98783.47;5066482;28;20515;-71
2024/01/03 01:44:44;;;;;;;17.30;2.03;;;;;;;17.02;51.81;98774.59;5057744;28;20038;-71
2024/01/03 01:47:11;;;;;;;15.63;2.43;;;;;;;17.06;51.48;98781.38;5068968;28;20051;-72
2024/01/03 01:49:39;;;;;;;11.33;1.57;;;;;;;16.85;52.00;98811.81;5056484;28;20048;-72
2024/01/03 01:52:09;;;;;;;9.73;1.67;;;;;;;16.41;52.51;98804.16;5057232;28;20210;-72
2024/01/03 01:54:34;;;;;;;18.83;1.90;;;;;;;16.98;51.85;98806.56;5054091;28;20039;-72
2024/01/03 01:57:00;;;;;;;15.80;1.30;;;;;;;17.07;50.94;98806.78;5069474;28;20020;-74
2024/01/03 01:59:26;;;;;;;8.33;1.67;;;;;;;16.23;52.67;98800.09;5069536;28;20089;-72
2024/01/03 02:01:51;;;;;;;7.07;1.07;;;;;;;16.44;52.40;98800.47;5070491;28;20016;-72
2024/01/03 02:04:17;;;;;;;14.77;1.87;;;;;;;16.42;52.70;98826.94;5056200;28;20347;-72
2024/01/03 02:06:43;;;;;;;12.20;1.83;;;;;;;16.82;51.77;98823.44;5056212;28;20370;-73
2024/01/03 02:09:08;;;;;;;10.53;1.67;;;;;;;16.59;52.05;98827.59;5066962;28;20032;-73
2024/01/03 02:11:34;;;;;;;16.20;1.87;;;;;;;17.17;50.88;98832.56;5066773;28;20028;-74
2024/01/03 02:13:59;;;;;;;16.27;2.17;;;;;;;16.69;51.99;98823.44;5048266;28;20082;-74
2024/01/03 02:16:24;;;;;;;9.37;1.40;;;;;;;16.62;52.04;98808.94;5054452;28;20028;-73
2024/01/03 02:18:50;;;;;;;22.60;2.67;;;;;;;17.79;49.88;98814.06;5050277;28;20032;-74
2024/01/03 02:21:16;;;;;;;10.37;1.27;;;;;;;17.05;51.05;98813.13;5066370;28;20113;-73
2024/01/03 02:23:42;;;;;;;20.57;2.77;;;;;;;16.32;52.85;98822.38;5068825;28;20021;-73
2024/01/03 02:26:08;;;;;;;11.23;2.07;;;;;;;17.29;51.12;98813.22;5053574;28;20028;-73
2024/01/03 02:28:34;;;;;;;10.63;1.53;;;;;;;16.84;51.95;98825.97;5047642;28;20086;-74
2024/01/03 02:30:59;;;;;;;6.13;1.23;;;;;;;16.71;52.41;98821.50;5046817;28;20029;-74
2024/01/03 02:33:25;;;;;;;11.43;3.03;;;;;;;16.65;52.21;98832.50;5041881;28;20043;-71
2024/01/03 02:35:50;;;;;;;11.10;1.87;;;;;;;15.96;54.21;98829.94;5061372;28;20067;-73
2024/01/03 02:38:16;;;;;;;5.37;1.33;;;;;;;16.76;52.90;98831.75;5052088;28;20484;-73
2024/01/03 02:40:41;;;;;;;13.30;1.70;;;;;;;16.56;52.99;98843.66;5051843;28;20093;-74
2024/01/03 02:43:06;;;;;;;20.37;2.47;;;;;;;17.05;51.90;98835.09;5045798;28;20029;-73
2024/01/03 02:45:32;;;;;;;13.50;1.50;;;;;;;16.36;53.46;98842.31;5054855;28;20025;-74
2024/01/03 02:47:57;;;;;;;15.97;2.97;;;;;;;17.03;51.20;98842.25;5068703;28;20049;-74
2024/01/03 02:50:22;;;;;;;8.93;1.97;;;;;;;17.13;52.25;98859.16;5063423;28;20381;-73
2024/01/03 02:52:48;;;;;;;6.20;1.40;;;;;;;17.62;50.48;98843.50;5065099;28;20062;-74
2024/01/03 02:55:13;;;;;;;18.83;2.20;;;;;;;16.94;52.78;98858.75;5069947;28;20130;-74
2024/01/03 02:57:39;;;;;;;17.63;2.27;;;;;;;16.73;52.53;98851.28;5051168;28;20052;-74
2024/01/03 03:00:05;;;;;;;12.27;1.37;;;;;;;16.74;52.51;98862.66;5048767;28;20481;-74
2024/01/03 03:02:30;;;;;;;16.70;1.43;;;;;;;16.74;53.17;98847.69;5047627;28;20029;-76
2024/01/03 03:04:56;;;;;;;12.83;2.13;;;;;;;17.24;51.23;98854.94;5049631;28;20032;-73
2024/01/03 03:07:21;;;;;;;21.67;2.53;;;;;;;17.29;51.66;98858.09;5054804;28;20021;-74
2024/01/03 03:09:46;;;;;;;12.97;2.63;;;;;;;17.63;50.99;98853.09;5043975;28;20072;-75
2024/01/03 03:12:12;;;;;;;9.87;1.37;;;;;;;17.15;52.40;98847.66;5068402;28;20024;-74
2024/01/03 03:14:37;;;;;;;12.40;3.17;;;;;;;16.51;54.63;98851.00;5060399;28;20493;-74
2024/01/03 03:17:02;;;;;;;19.37;2.30;;;;;;;17.02;53.41;98871.41;5066076;28;20032;-74
2024/01/03 03:19:28;;;;;;;20.63;3.43;;;;;;;17.33;52.81;98877.22;5068767;28;20016;-74
2024/01/03 03:21:53;;;;;;;12.47;2.40;;;;;;;17.39;52.46;98868.88;5056701;28;20028;-74
2024/01/03 03:24:18;;;;;;;11.73;1.87;;;;;;;17.58;51.62;98852.56;5064512;28;20021;-74
2024/01/03 03:26:47;;;;;;;29.57;3.30;;;;;;;17.35;52.91;98849.78;5062686;28;20120;-74
2024/01/03 03:29:13;;;;;;;20.63;3.03;;;;;;;16.91;53.36;98858.91;5067544;28;20100;-74
2024/01/03 03:31:38;;;;;;;17.83;1.50;;;;;;;17.10;53.11;98862.03;5061370;28;20085;-74
2024/01/03 03:34:04;;;;;;;7.43;2.27;;;;;;;17.03;53.75;98860.72;5069877;28;20025;-73
2024/01/03 03:36:29;;;;;;;24.40;3.23;;;;;;;17.50;52.26;98861.03;5059251;28;20045;-74
2024/01/03 03:38:55;;;;;;;18.30;2.67;;;;;;;18.02;51.21;98856.50;5043407;28;20122;-74
2024/01/03 03:41:21;;;;;;;14.70;2.33;;;;;;;18.24;50.80;98868.19;5058112;28;20035;-75
2024/01/03 03:43:46;;;;;;;17.20;2.13;;;;;;;17.81;51.73;98870.28;5069110;28;20078;-74
2024/01/03 03:46:12;;;;;;;17.17;1.90;;;;;;;17.89;51.95;98863.63;5054296;28;20028;-75
2024/01/03 03:48:37;;;;;;;13.67;3.00;;;;;;;17.12;53.97;98878.59;5069112;28;20052;-74
2024/01/03 03:51:04;;;;;;;24.40;2.90;;;;;;;17.08;54.02;98863.06;5064744;28;20038;-74
2024/01/03 03:53:32;;;;;;;14.10;2.90;;;;;;;17.42;53.28;98869.50;5069413;28;20109;-74
2024/01/03 03:55:57;;;;;;;21.80;3.30;;;;;;;17.15;53.74;98874.06;5058700;28;20025;-74
2024/01/03 03:58:23;;;;;;;21.63;1.97;;;;;;;17.45;53.77;98869.28;5067783;28;20150;-74
2024/01/03 04:00:48;;;;;;;24.60;2.20;;;;;;;17.26;53.92;98871.53;5070067;28;20052;-74
2024/01/03 04:03:13;;;;;;;15.83;4.20;;;;;;;17.36;52.81;98879.66;5073192;28;20036;-74
2024/01/03 04:05:39;;;;;;;19.83;2.00;;;;;;;17.82;52.85;98865.84;5055128;28;20443;-76
2024/01/03 04:08:05;;;;;;;23.23;3.20;;;;;;;17.51;52.21;98860.09;5071793;28;20516;-75
2024/01/03 04:10:30;;;;;;;22.77;2.93;;;;;;;17.21;54.12;98870.97;5071159;28;20081;-74
2024/01/03 04:12:57;;;;;;;35.90;3.13;;;;;;;16.37;56.30;98886.19;5052876;28;20119;-74
2024/01/03 04:15:24;;;;;;;21.23;2.47;;;;;;;17.12;55.15;98875.09;5052293;28;20075;-72
2024/01/03 04:17:49;;;;;;;19.63;1.90;;;;;;;17.37;54.23;98886.63;5059037;28;20241;-74
2024/01/03 04:20:15;;;;;;;14.93;2.20;;;;;;;16.81;54.00;98878.94;5050336;28;20025;-74
2024/01/03 04:22:43;;;;;;;20.27;3.77;;;;;;;16.98;54.71;98880.47;5050789;28;20072;-75
2024/01/03 04:25:09;;;;;;;18.97;2.77;;;;;;;16.28;56.14;98871.84;5051363;28;20039;-74
2024/01/03 04:27:35;;;;;;;18.40;2.67;;;;;;;16.53;56.51;98897.44;5082531;28;20036;-74
2024/01/03 04:30:00;;;;;;;7.97;2.40;;;;;;;16.96;54.25;98889.31;5054526;28;20048;-74
2024/01/03 04:32:26;;;;;;;16.80;2.37;;;;;;;17.08;54.25;98889.47;5064719;28;20499;-74
2024/01/03 04:34:51;;;;;;;26.43;4.30;;;;;;;17.25;54.01;98896.22;5067227;28;20090;-74
2024/01/03 04:37:16;;;;;;;18.87;1.70;;;;;;;17.69;53.51;98879.06;5064732;28;20032;-75
2024/01/03 04:39:42;;;;;;;25.43;3.77;;;;;;;17.17;54.34;98886.19;5051244;28;20048;-75
2024/01/03 04:42:07;;;;;;;17.70;2.73;;;;;;;18.18;51.96;98881.84;5077706;28;20024;-75
2024/01/03 04:44:34;;;;;;;11.90;1.73;;;;;;;17.50;53.36;98883.97;5072068;28;20029;-75
2024/01/03 04:46:59;;;;;;;21.53;2.17;;;;;;;17.09;54.92;98885.84;5065011;28;20484;-74
2024/01/03 04:49:25;;;;;;;14.87;2.20;;;;;;;17.52;53.32;98892.66;5071978;28;20052;-74
2024/01/03 04:51:50;;;;;;;31.10;3.30;;;;;;;16.85;54.70;98906.81;5061016;28;20032;-74
2024/01/03 04:54:15;;;;;;;20.10;1.83;;;;;;;17.01;54.22;98896.94;5066782;28;20040;-75
2024/01/03 04:56:41;;;;;;;22.63;1.97;;;;;;;17.44;54.41;98894.00;5069854;28;20593;-75
2024/01/03 04:59:06;;;;;;;23.30;2.87;;;;;;;16.91;54.54;98890.59;5055637;28;20481;-75
2024/01/03 05:01:32;;;;;;;14.73;2.37;;;;;;;17.39;53.29;98890.84;5052740;28;20492;-74
2024/01/03 05:04:00;;;;;;;21.33;2.90;;;;;;;17.02;54.62;98893.38;5069728;28;20024;-75
2024/01/03 05:06:25;;;;;;;16.23;1.57;;;;;;;16.30;55.80;98885.75;5053184;28;20475;-74
2024/01/03 05:08:50;;;;;;;14.87;1.67;;;;;;;16.67;55.62;98893.06;5066415;28;20627;-74
2024/01/03 05:11:16;;;;;;;20.30;1.60;;;;;;;16.59;56.64;98904.09;5050175;28;20025;-75
2024/01/03 05:13:41;;;;;;;17.67;1.50;;;;;;;16.43;57.10;98891.91;5069670;28;20055;-74
2024/01/03 05:16:07;;;;;;;14.43;2.57;;;;;;;17.18;54.80;98897.59;5061703;28;20024;-75
2024/01/03 05:18:32;;;;;;;11.63;1.83;;;;;;;16.59;55.88;98897.00;5062363;28;20021;-75
2024/01/03 05:20:57;;;;;;;15.63;1.90;;;;;;;17.63;52.90;98882.16;5051822;28;20384;-75
2024/01/03 05:23:23;;;;;;;21.23;1.70;;;;;;;16.92;55.10;98898.41;5065192;28;20063;-74
2024/01/03 05:25:48;;;;;;;9.50;1.50;;;;;;;17.02;54.62;98882.81;5063359;28;20327;-75
2024/01/03 05:28:14;;;;;;;13.10;1.87;;;;;;;17.20;54.44;98893.03;5062693;28;20032;-75
2024/01/03 05:30:40;;;;;;;9.90;1.20;;;;;;;16.50;55.42;98889.72;5066068;28;20025;-74
2024/01/03 05:33:06;;;;;;;13.93;1.83;;;;;;;16.12;57.56;98898.31;5053812;28;20451;-74
2024/01/03 05:35:31;;;;;;;6.40;1.93;;;;;;;17.15;53.58;98892.53;5029836;28;20025;-75
2024/01/03 05:37:57;;;;;;;9.93;1.70;;;;;;;16.75;54.15;98896.84;5049102;28;20032;-75
2024/01/03 05:40:22;;;;;;;8.43;1.50;;;;;;;17.70;52.28;98898.44;5062984;28;20022;-75
2024/01/03 05:42:47;;;;;;;11.43;1.50;;;;;;;17.29;53.21;98905.63;5044453;28;20028;-75
2024/01/03 05:45:13;;;;;;;15.30;1.30;;;;;;;17.08;53.72;98903.50;5068662;28;20623;-75
2024/01/03 05:47:39;;;;;;;14.53;1.63;;;;;;;17.86;51.22;98899.03;5054842;28;20080;-75
2024/01/03 05:50:06;;;;;;;14.53;1.30;;;;;;;17.56;52.74;98899.41;5057244;28;20039;-74
2024/01/03 05:52:31;;;;;;;5.37;0.70;;;;;;;16.47;55.85;98897.81;5052587;28;20063;-75
2024/01/03 05:54:57;;;;;;;6.23;1.40;;;;;;;17.35;53.99;98899.06;5053587;28;20068;-75
2024/01/03 05:57:22;;;;;;;6.20;1.00;;;;;;;17.37;53.38;98903.31;5052760;28;20032;-75
2024/01/03 05:59:47;;;;;;;7.03;1.60;;;;;;;17.21;53.68;98902.66;5052388;28;20037;-75
2024/01/03 06:02:13;;;;;;;6.43;1.20;;;;;;;16.77;55.24;98905.53;5050835;28;20039;-75
2024/01/03 06:04:38;;;;;;;13.97;1.90;;;;;;;16.73;55.78;98916.38;5057465;28;20034;-75
2024/01/03 06:07:04;;;;;;;8.93;1.57;;;;;;;17.12;54.18;98904.97;5048235;28;20488;-75
2024/01/03 06:09:29;;;;;;;8.83;1.23;;;;;;;16.85;55.74;98920.84;5069050;28;20036;-75
2024/01/03 06:11:54;;;;;;;9.57;1.23;;;;;;;17.20;54.59;98911.53;5069548;28;20127;-75
2024/01/03 06:14:20;;;;;;;11.17;1.73;;;;;;;16.78;55.85;98924.84;5050758;28;20033;-75
2024/01/03 06:16:45;;;;;;;8.60;1.80;;;;;;;17.13;55.74;98911.09;5048223;28;20476;-75
2024/01/03 06:19:11;;;;;;;3.97;0.77;;;;;;;16.41;57.34;98893.78;5055701;28;20025;-74
2024/01/03 06:21:36;;;;;;;4.10;1.53;;;;;;;16.56;58.10;98917.50;5048892;28;20159;-75
2024/01/03 06:24:02;;;;;;;6.93;1.23;;;;;;;17.13;54.61;98906.69;5040146;28;20461;-75
2024/01/03 06:26:30;;;;;;;9.07;1.40;;;;;;;17.08;55.20;98914.06;5052348;28;20066;-75
2024/01/03 06:28:58;;;;;;;16.87;1.60;;;;;;;16.57;57.16;98914.75;5049136;28;20377;-75
2024/01/03 06:31:24;;;;;;;5.57;1.00;;;;;;;16.06;59.69;98925.03;5048991;28;20025;-75
2024/01/03 06:33:50;;;;;;;5.97;1.03;;;;;;;16.36;60.67;98922.28;5056801;28;20134;-75
2024/01/03 06:36:15;;;;;;;10.87;1.20;;;;;;;16.64;59.87;98925.75;5053319;28;20032;-75
2024/01/03 06:38:41;;;;;;;7.23;1.10;;;;;;;16.91;60.02;98932.81;5050246;28;20035;-76
2024/01/03 06:41:06;;;;;;;6.73;1.50;;;;;;;16.95;58.53;98929.00;5053079;28;20033;-75
2024/01/03 06:43:32;;;;;;;9.53;1.37;;;;;;;16.40;60.76;98933.44;5053831;28;20032;-76
2024/01/03 06:45:57;;;;;;;7.23;0.83;;;;;;;15.16;63.39;98921.72;5068294;28;20123;-75
2024/01/03 06:48:22;;;;;;;6.33;0.60;;;;;;;15.52;61.79;98937.06;5048628;28;20045;-75
2024/01/03 06:50:48;;;;;;;9.97;0.80;;;;;;;15.51;63.21;98934.53;5047837;28;20546;-75
2024/01/03 06:53:14;;;;;;;10.17;1.50;;;;;;;16.76;59.26;98932.84;5049924;28;20496;-76
2024/01/03 06:55:40;;;;;;;10.13;0.97;;;;;;;15.51;61.88;98947.69;5067783;28;20029;-75
2024/01/03 06:58:05;;;;;;;6.87;0.80;;;;;;;15.72;63.73;98943.78;5051421;28;20052;-75
2024/01/03 07:00:30;;;;;;;5.67;1.10;;;;;;;15.42;63.39;98951.75;5068292;28;20075;-75
2024/01/03 07:02:56;;;;;;;10.03;0.80;;;;;;;15.90;61.82;98946.25;5067741;28;20028;-74
2024/01/03 07:05:21;;;;;;;5.73;0.80;;;;;;;16.55;59.66;98936.88;5066955;28;20492;-74
2024/01/03 07:07:47;;;;;;;12.77;1.87;;;;;;;15.81;62.72;98949.44;5053070;28;20041;-74
2024/01/03 07:10:12;;;;;;;7.60;1.43;;;;;;;15.97;62.05;98957.25;5050589;28;20055;-75
2024/01/03 07:12:38;;;;;;;10.63;1.23;;;;;;;15.84;62.17;98957.16;5048294;28;20021;-75
2024/01/03 07:15:05;;;;;;;6.97;0.80;;;;;;;16.40;60.35;98959.81;5048261;28;20029;-75
2024/01/03 07:17:30;;;;;;;11.50;1.97;;;;;;;15.77;61.06;98965.41;5043817;28;20038;-74
2024/01/03 07:19:56;;;;;;;9.73;0.97;;;;;;;17.10;59.35;98954.41;5047340;28;20037;-75
2024/01/03 07:22:21;;;;;;;9.50;1.53;;;;;;;16.76;58.14;98961.88;5040560;28;20117;-75
2024/01/03 07:24:47;;;;;;;14.40;1.33;;;;;;;16.58;58.76;98957.78;5042278;28;20477;-75
2024/01/03 07:27:12;;;;;;;6.87;1.50;;;;;;;16.15;60.06;98971.06;5050673;28;20108;-75
2024/01/03 07:29:38;;;;;;;14.20;1.97;;;;;;;16.50;59.71;98960.94;5063535;28;20028;-75
2024/01/03 07:32:03;;;;;;;11.23;1.03;;;;;;;16.68;59.03;98958.03;5057908;28;20036;-75
2024/01/03 07:34:31;;;;;;;7.47;0.93;;;;;;;16.41;60.44;98978.16;5062278;28;20070;-75
2024/01/03 07:36:56;;;;;;;8.60;0.90;;;;;;;16.51;60.39;98967.03;5071918;28;20338;-75
2024/01/03 07:39:22;;;;;;;9.23;1.47;;;;;;;16.52;60.37;98966.94;5064483;28;20017;-75
2024/01/03 07:41:49;;;;;;;10.60;1.07;;;;;;;15.92;62.58;98965.44;5052061;28;20039;-75
2024/01/03 07:44:14;;;;;;;12.83;1.13;;;;;;;16.39;61.51;98977.44;5068505;28;20060;-75
2024/01/03 07:46:39;;;;;;;9.50;1.47;;;;;;;16.94;58.90;98969.56;5048096;28;20564;-75
2024/01/03 07:49:05;;;;;;;14.60;3.70;;;;;;;17.30;57.62;98986.53;5041420;28;20040;-76
2024/01/03 07:51:30;;;;;;;7.60;1.40;;;;;;;17.04;59.44;98970.63;5072568;28;20462;-75
2024/01/03 07:53:56;;;;;;;14.43;1.77;;;;;;;16.41;60.82;98983.44;5064406;28;20025;-75
2024/01/03 07:56:21;;;;;;;11.50;1.63;;;;;;;16.79;60.00;98977.50;5073627;28;20024;-75
2024/01/03 07:58:46;;;;;;;12.47;1.60;;;;;;;17.03;56.47;98990.03;5071454;28;20029;-75
2024/01/03 08:01:12;;;;;;;12.80;2.07;;;;;;;16.93;57.96;98983.69;5053310;28;20063;-76
2024/01/03 08:03:37;;;;;;;17.87;2.20;;;;;;;16.63;59.32;98990.00;5053268;28;20358;-76
2024/01/03 08:06:03;;;;;;;14.27;1.43;;;;;;;16.53;59.51;98988.91;5055352;28;20025;-76
2024/01/03 08:08:32;;;;;;;7.10;1.97;;;;;;;16.68;57.79;98989.69;5053176;28;20028;-76
2024/01/03 08:10:57;;;;;;;12.73;1.73;;;;;;;16.37;60.19;98989.84;5069654;28;20103;-75
2024/01/03 08:13:22;;;;;;;9.37;2.27;;;;;;;16.66;57.67;98997.69;5071315;28;20115;-76
2024/01/03 08:15:48;;;;;;;21.77;1.70;;;;;;;17.11;57.27;99003.59;5055512;28;20086;-76
2024/01/03 08:18:13;;;;;;;8.67;1.27;;;;;;;16.34;59.23;99000.59;5051883;28;20047;-75
2024/01/03 08:20:38;;;;;;;15.40;2.10;;;;;;;16.93;57.01;99004.81;5059098;28;20025;-76
2024/01/03 08:23:04;;;;;;;8.50;1.57;;;;;;;15.96;60.23;99019.63;5052752;28;20103;-76
2024/01/03 08:25:29;;;;;;;7.03;0.73;;;;;;;16.69;57.83;99002.78;5059591;28;20028;-74
2024/01/03 08:27:55;;;;;;;12.87;2.10;;;;;;;16.94;57.94;99002.06;5052206;28;20039;-75
2024/01/03 08:30:20;;;;;;;12.33;2.30;;;;;;;16.46;58.21;99001.63;5061351;28;20351;-76
2024/01/03 08:32:45;;;;;;;19.37;2.43;;;;;;;17.12;56.74;99015.84;5071152;28;20033;-75
2024/01/03 08:35:11;;;;;;;13.63;1.70;;;;;;;16.49;58.57;99017.25;5062866;28;20017;-75
2024/01/03 08:37:36;;;;;;;13.60;1.67;;;;;;;15.66;61.95;99023.16;5050928;28;20111;-76
2024/01/03 08:40:03;;;;;;;10.43;1.57;;;;;;;16.94;57.88;99009.16;5073243;28;20061;-76
2024/01/03 08:42:28;;;;;;;18.60;1.30;;;;;;;15.91;60.93;99027.00;5052012;28;20057;-75
2024/01/03 08:44:53;;;;;;;21.67;2.93;;;;;;;16.94;57.06;99017.06;5053323;28;20098;-75
2024/01/03 08:47:19;;;;;;;17.90;1.87;;;;;;;17.15;56.80;99020.06;5051601;28;20036;-75
2024/01/03 08:49:45;;;;;;;12.70;1.57;;;;;;;16.28;60.58;99028.19;5050832;28;20140;-75
2024/01/03 08:52:10;;;;;;;10.17;1.73;;;;;;;16.87;58.62;99021.00;5047499;28;20037;-75
2024/01/03 08:54:36;;;;;;;11.93;1.93;;;;;;;17.32;55.86;99032.16;5049555;28;20484;-76
2024/01/03 08:57:01;;;;;;;10.57;1.43;;;;;;;17.65;56.06;99041.41;5060016;28;20060;-75
2024/01/03 08:59:27;;;;;;;10.37;1.30;;;;;;;17.32;55.21;99028.66;5045776;28;20021;-75
2024/01/03 09:01:56;;;;;;;10.03;1.50;;;;;;;16.87;57.68;99026.28;5048669;28;20029;-75
2024/01/03 09:04:21;;;;;;;12.67;1.43;;;;;;;17.49;55.47;99032.81;5047737;28;20090;-75
2024/01/03 09:06:47;;;;;;;13.67;1.60;;;;;;;17.52;55.84;99033.47;5048850;28;20028;-76
2024/01/03 09:09:13;;;;;;;14.23;0.97;;;;;;;17.77;53.97;99035.28;5048672;28;20036;-75
2024/01/03 09:11:38;;;;;;;7.50;2.57;;;;;;;17.48;54.71;99036.44;5044496;28;20033;-73
2024/01/03 09:14:04;;;;;;;14.43;1.73;;;;;;;17.48;55.41;99036.44;5050089;28;20040;-73
2024/01/03 09:16:31;;;;;;;15.47;1.97;;;;;;;16.62;58.29;99038.41;5054381;28;20029;-72
2024/01/03 09:18:57;;;;;;;14.57;1.90;;;;;;;17.33;57.06;99043.56;5048564;28;20377;-73
2024/01/03 09:21:22;;;;;;;8.13;1.47;;;;;;;16.50;59.12;99049.72;5046562;28;20032;-74
2024/01/03 09:23:49;;;;;;;13.97;1.47;;;;;;;16.72;59.62;99058.00;5049702;28;20628;-74
2024/01/03 09:26:17;;;;;;;9.93;1.83;;;;;;;16.36;60.56;99059.38;5041197;28;20064;-74
2024/01/03 09:28:42;;;;;;;16.63;1.70;;;;;;;15.99;62.92;99066.91;5047096;28;20027;-74
2024/01/03 09:31:08;;;;;;;10.83;1.60;;;;;;;16.74;59.62;99074.56;5046315;28;20120;-74
2024/01/03 09:33:34;;;;;;;11.27;1.20;;;;;;;16.85;59.30;99070.41;5042537;28;20427;-74
2024/01/03 09:35:59;;;;;;;11.53;1.80;;;;;;;16.05;62.93;99074.41;5051733;28;20028;-74
2024/01/03 09:38:26;;;;;;;9.87;1.23;;;;;;;16.53;60.92;99081.19;5057705;28;20078;-73
2024/01/03 09:40:51;;;;;;;15.07;1.50;;;;;;;16.48;60.33;99073.56;5050084;28;20060;-73
2024/01/03 09:43:19;;;;;;;13.73;1.93;;;;;;;17.91;56.08;99071.34;5052054;28;20574;-74
2024/01/03 09:45:45;;;;;;;9.43;2.10;;;;;;;17.16;58.02;99079.00;5048488;28;20067;-73
2024/01/03 09:48:11;;;;;;;12.13;1.50;;;;;;;16.10;60.80;99090.81;5057119;28;20136;-73
2024/01/03 09:50:37;;;;;;;13.53;1.83;;;;;;;16.28;59.64;99090.63;5045374;28;20107;-73
2024/01/03 09:53:05;;;;;;;16.70;1.63;;;;;;;15.99;60.83;99093.25;5048482;28;20115;-73
2024/01/03 09:55:32;;;;;;;5.50;1.03;;;;;;;16.79;59.31;99088.31;5052854;28;20491;-73
2024/01/03 09:57:57;;;;;;;7.63;1.10;;;;;;;16.78;58.88;99083.97;5051085;28;20383;-74
2024/01/03 10:00:29;;;;;;;15.60;2.70;;;;;;;16.66;58.63;99097.09;5048399;28;20039;-73
2024/01/03 10:03:03;;;;;;;11.82;1.48;;;;;;;17.12;57.44;99095.03;5050688;28;20537;-74
2024/01/03 10:05:29;;;;;;;12.20;1.40;;;;;;;17.25;56.21;99099.50;5035230;28;20535;-74
2024/01/03 10:07:55;;;;;;;12.87;1.60;;;;;;;16.61;56.87;99097.38;5060218;28;20113;-74
2024/01/03 10:10:34;;;;;;;7.20;1.40;;;;;;;17.60;54.83;99096.34;5050037;28;20116;-74
2024/01/03 10:13:16;;;;;;;12.50;1.73;;;;;;;16.90;56.07;99102.66;5057744;28;20488;-73
2024/01/03 10:15:45;;;;;;;7.17;1.17;;;;;;;17.06;57.17;99090.16;5068650;28;20071;-73
2024/01/03 10:18:11;;;;;;;15.70;1.67;;;;;;;16.91;55.85;99096.41;5054119;28;20101;-74
2024/01/03 10:20:37;;;;;;;17.10;1.43;;;;;;;16.63;56.88;99098.97;5065004;28;20484;-73
2024/01/03 10:23:09;;;;;;;22.13;1.60;;;;;;;17.11;55.63;99098.59;5063288;28;20033;-74
2024/01/03 10:25:35;;;;;;;10.07;1.42;;;;;;;17.00;54.15;99106.38;5060876;28;20036;-73
2024/01/03 10:28:04;;;;;;;13.07;1.27;;;;;;;16.53;55.57;99102.28;5049868;28;20029;-73
2024/01/03 10:30:30;;;;;;;12.27;1.50;;;;;;;17.30;54.06;99110.63;5044846;28;20432;-74
2024/01/03 10:33:02;;;;;;;16.30;1.60;;;;;;;17.33;54.36;99105.13;5059126;28;20122;-76
2024/01/03 10:35:32;;;;;;;12.00;2.05;;;;;;;17.44;52.30;99094.72;5063877;28;20035;-74
2024/01/03 10:37:59;;;;;;;11.00;1.23;;;;;;;17.51;52.66;99099.59;5050571;28;20028;-74
2024/01/03 10:40:30;;;;;;;7.93;1.43;;;;;;;16.65;54.65;99112.09;5047438;28;20029;-73
2024/01/03 10:42:56;;;;;;;7.27;1.30;;;;;;;17.01;53.53;99118.63;5047035;28;20032;-73
2024/01/03 10:45:22;;;;;;;12.03;2.90;;;;;;;16.93;54.05;99105.09;5047308;28;20446;-73
2024/01/03 10:47:48;;;;;;;5.90;1.60;;;;;;;17.61;51.48;99095.38;5046323;28;20831;-73
2024/01/03 10:50:14;;;;;;;9.03;1.83;;;;;;;17.68;52.05;99107.25;5048767;28;20025;-74
2024/01/03 10:52:42;;;;;;;17.63;1.93;;;;;;;17.70;52.73;99100.06;5050291;28;20021;-74
2024/01/03 10:55:10;;;;;;;15.97;3.13;;;;;;;17.45;53.03;99100.84;5043167;28;20024;-73
2024/01/03 10:57:40;;;;;;;13.50;3.10;;;;;;;18.00;52.52;99101.63;5067083;28;20024;-73
2024/01/03 11:00:17;;;;;;;14.83;1.67;;;;;;;17.13;53.21;99096.72;5049753;28;20024;-74
2024/01/03 11:02:57;;;;;;;10.97;1.73;;;;;;;16.96;53.47;99089.06;5054798;28;20033;-73
2024/01/03 11:05:34;;;;;;;15.67;1.43;;;;;;;17.72;52.71;99092.91;5072598;28;20480;-74
2024/01/03 11:08:06;;;;;;;14.43;1.60;;;;;;;17.99;51.72;99084.06;5048483;28;20086;-74
2024/01/03 11:10:54;;;;;;;13.67;1.80;;;;;;;18.00;50.64;99096.34;5061801;28;20278;-73
2024/01/03 11:13:26;;;;;;;17.60;2.27;;;;;;;18.01;50.93;99087.47;5062059;28;20495;-74
2024/01/03 11:15:52;;;;;;;10.43;1.60;;;;;;;16.62;52.66;99101.69;5070626;28;20027;-73
2024/01/03 11:18:42;;;;;;;16.07;1.83;;;;;;;17.94;50.98;99092.31;5066341;28;20017;-74
2024/01/03 11:21:20;;;;;;;8.27;1.73;;;;;;;17.54;51.59;99092.31;5048317;28;20022;-74
2024/01/03 11:23:46;;;;;;;19.67;2.07;;;;;;;17.94;51.46;99081.75;5057859;28;20036;-73